sensor_id;sensor_type;location;lat;lon;timestamp;temperature;humidity
67364;HTU21D;54250;45.572;38.086;2023-07-24T00:00:49;20.29;92.59
67364;HTU21D;54250;45.572;38.086;2023-07-24T00:03:15;20.29;92.53
67364;HTU21D;54250;45.572;38.086;2023-07-24T00:05:41;20.29;92.51
67364;HTU21D;54250;45.572;38.086;2023-07-24T00:08:07;20.31;92.52
67364;HTU21D;54250;45.572;38.086;2023-07-24T00:10:33;20.31;92.51
67364;HTU21D;54250;45.572;38.086;2023-07-24T00:12:59;20.29;92.57
67364;HTU21D;54250;45.572;38.086;2023-07-24T00:15:25;20.30;92.59
67364;HTU21D;54250;45.572;38.086;2023-07-24T00:17:50;20.27;92.63
67364;HTU21D;54250;45.572;38.086;2023-07-24T00:20:16;20.21;92.83
67364;HTU21D;54250;45.572;38.086;2023-07-24T00:22:42;20.13;93.04
67364;HTU21D;54250;45.572;38.086;2023-07-24T00:25:08;20.05;93.24
67364;HTU21D;54250;45.572;38.086;2023-07-24T00:27:34;19.97;93.41
67364;HTU21D;54250;45.572;38.086;2023-07-24T00:30:01;19.94;93.59
67364;HTU21D;54250;45.572;38.086;2023-07-24T00:32:26;19.86;93.70
67364;HTU21D;54250;45.572;38.086;2023-07-24T00:34:54;19.80;93.85
67364;HTU21D;54250;45.572;38.086;2023-07-24T00:37:20;19.74;93.95
67364;HTU21D;54250;45.572;38.086;2023-07-24T00:39:46;19.69;94.07
67364;HTU21D;54250;45.572;38.086;2023-07-24T00:42:12;19.63;94.20
67364;HTU21D;54250;45.572;38.086;2023-07-24T00:44:38;19.58;94.19
67364;HTU21D;54250;45.572;38.086;2023-07-24T00:47:04;19.52;94.30
67364;HTU21D;54250;45.572;38.086;2023-07-24T00:49:30;19.45;94.34
67364;HTU21D;54250;45.572;38.086;2023-07-24T00:51:56;19.42;94.42
67364;HTU21D;54250;45.572;38.086;2023-07-24T00:54:27;19.35;94.56
67364;HTU21D;54250;45.572;38.086;2023-07-24T00:56:53;19.28;94.62
67364;HTU21D;54250;45.572;38.086;2023-07-24T00:59:20;19.24;94.67
67364;HTU21D;54250;45.572;38.086;2023-07-24T01:01:46;19.17;94.74
67364;HTU21D;54250;45.572;38.086;2023-07-24T01:04:14;19.13;94.85
67364;HTU21D;54250;45.572;38.086;2023-07-24T01:06:40;19.08;94.88
67364;HTU21D;54250;45.572;38.086;2023-07-24T01:09:06;19.02;94.99
67364;HTU21D;54250;45.572;38.086;2023-07-24T01:11:46;18.97;95.01
67364;HTU21D;54250;45.572;38.086;2023-07-24T01:14:53;18.91;95.13
67364;HTU21D;54250;45.572;38.086;2023-07-24T01:17:15;18.85;95.15
67364;HTU21D;54250;45.572;38.086;2023-07-24T01:19:47;18.80;95.22
67364;HTU21D;54250;45.572;38.086;2023-07-24T01:27:45;18.63;95.26
67364;HTU21D;54250;45.572;38.086;2023-07-24T01:30:12;18.59;95.23
67364;HTU21D;54250;45.572;38.086;2023-07-24T01:32:38;18.56;95.27
67364;HTU21D;54250;45.572;38.086;2023-07-24T01:35:06;18.52;95.38
67364;HTU21D;54250;45.572;38.086;2023-07-24T01:37:34;18.50;95.51
67364;HTU21D;54250;45.572;38.086;2023-07-24T01:40:00;18.48;95.51
67364;HTU21D;54250;45.572;38.086;2023-07-24T01:42:28;18.48;95.58
67364;HTU21D;54250;45.572;38.086;2023-07-24T01:44:55;18.50;95.59
67364;HTU21D;54250;45.572;38.086;2023-07-24T01:47:21;18.49;95.58
67364;HTU21D;54250;45.572;38.086;2023-07-24T01:49:48;18.51;95.59
67364;HTU21D;54250;45.572;38.086;2023-07-24T01:52:14;18.53;95.58
67364;HTU21D;54250;45.572;38.086;2023-07-24T01:54:40;18.55;95.61
67364;HTU21D;54250;45.572;38.086;2023-07-24T01:57:06;18.55;95.68
67364;HTU21D;54250;45.572;38.086;2023-07-24T01:59:32;18.54;95.77
67364;HTU21D;54250;45.572;38.086;2023-07-24T02:01:58;18.54;95.88
67364;HTU21D;54250;45.572;38.086;2023-07-24T02:04:24;18.57;95.94
67364;HTU21D;54250;45.572;38.086;2023-07-24T02:06:50;18.61;95.95
67364;HTU21D;54250;45.572;38.086;2023-07-24T02:09:18;18.67;95.94
67364;HTU21D;54250;45.572;38.086;2023-07-24T02:11:44;18.71;95.90
67364;HTU21D;54250;45.572;38.086;2023-07-24T02:14:12;18.77;95.93
67364;HTU21D;54250;45.572;38.086;2023-07-24T02:16:38;18.80;95.91
67364;HTU21D;54250;45.572;38.086;2023-07-24T02:19:04;18.84;96.03
67364;HTU21D;54250;45.572;38.086;2023-07-24T02:21:31;18.87;96.06
67364;HTU21D;54250;45.572;38.086;2023-07-24T02:23:57;18.89;96.13
67364;HTU21D;54250;45.572;38.086;2023-07-24T02:26:23;18.93;96.18
67364;HTU21D;54250;45.572;38.086;2023-07-24T02:28:49;18.95;96.23
67364;HTU21D;54250;45.572;38.086;2023-07-24T02:31:15;18.98;96.19
67364;HTU21D;54250;45.572;38.086;2023-07-24T02:33:42;19.01;96.20
67364;HTU21D;54250;45.572;38.086;2023-07-24T02:36:08;19.05;96.21
67364;HTU21D;54250;45.572;38.086;2023-07-24T02:38:34;19.07;96.27
67364;HTU21D;54250;45.572;38.086;2023-07-24T02:41:00;19.09;96.28
67364;HTU21D;54250;45.572;38.086;2023-07-24T02:43:26;19.14;96.28
67364;HTU21D;54250;45.572;38.086;2023-07-24T02:45:52;19.18;96.22
67364;HTU21D;54250;45.572;38.086;2023-07-24T02:48:17;19.22;96.20
67364;HTU21D;54250;45.572;38.086;2023-07-24T02:50:43;19.28;96.16
67364;HTU21D;54250;45.572;38.086;2023-07-24T02:53:09;19.36;96.10
67364;HTU21D;54250;45.572;38.086;2023-07-24T02:55:36;19.53;96.02
67364;HTU21D;54250;45.572;38.086;2023-07-24T02:58:02;19.90;95.56
67364;HTU21D;54250;45.572;38.086;2023-07-24T03:00:28;20.69;93.85
67364;HTU21D;54250;45.572;38.086;2023-07-24T03:02:54;21.50;91.95
67364;HTU21D;54250;45.572;38.086;2023-07-24T03:05:20;22.28;90.30
67364;HTU21D;54250;45.572;38.086;2023-07-24T03:07:46;23.03;88.81
67364;HTU21D;54250;45.572;38.086;2023-07-24T03:10:12;23.72;87.58
67364;HTU21D;54250;45.572;38.086;2023-07-24T03:12:37;24.32;85.96
67364;HTU21D;54250;45.572;38.086;2023-07-24T03:15:04;24.51;85.80
67364;HTU21D;54250;45.572;38.086;2023-07-24T03:17:30;25.03;84.62
67364;HTU21D;54250;45.572;38.086;2023-07-24T03:19:56;25.67;82.73
67364;HTU21D;54250;45.572;38.086;2023-07-24T03:22:22;26.07;81.90
67364;HTU21D;54250;45.572;38.086;2023-07-24T03:24:47;26.45;80.90
67364;HTU21D;54250;45.572;38.086;2023-07-24T03:27:13;27.22;78.78
67364;HTU21D;54250;45.572;38.086;2023-07-24T03:29:39;28.10;76.22
67364;HTU21D;54250;45.572;38.086;2023-07-24T03:32:07;28.75;74.12
67364;HTU21D;54250;45.572;38.086;2023-07-24T03:34:33;28.84;73.69
67364;HTU21D;54250;45.572;38.086;2023-07-24T03:36:58;28.61;73.96
67364;HTU21D;54250;45.572;38.086;2023-07-24T03:39:24;28.16;74.67
67364;HTU21D;54250;45.572;38.086;2023-07-24T03:41:51;27.53;75.88
67364;HTU21D;54250;45.572;38.086;2023-07-24T03:44:17;26.98;76.92
67364;HTU21D;54250;45.572;38.086;2023-07-24T03:46:43;26.62;77.56
67364;HTU21D;54250;45.572;38.086;2023-07-24T03:49:08;26.51;77.63
67364;HTU21D;54250;45.572;38.086;2023-07-24T03:51:34;26.64;77.15
67364;HTU21D;54250;45.572;38.086;2023-07-24T03:54:00;26.82;76.44
67364;HTU21D;54250;45.572;38.086;2023-07-24T03:56:26;26.90;76.14
67364;HTU21D;54250;45.572;38.086;2023-07-24T03:58:52;27.19;75.35
67364;HTU21D;54250;45.572;38.086;2023-07-24T04:01:19;27.46;74.41
67364;HTU21D;54250;45.572;38.086;2023-07-24T04:03:45;27.96;73.25
67364;HTU21D;54250;45.572;38.086;2023-07-24T04:06:11;28.40;72.09
67364;HTU21D;54250;45.572;38.086;2023-07-24T04:08:36;29.18;70.29
67364;HTU21D;54250;45.572;38.086;2023-07-24T04:11:03;29.76;68.93
67364;HTU21D;54250;45.572;38.086;2023-07-24T04:13:30;30.92;66.20
67364;HTU21D;54250;45.572;38.086;2023-07-24T04:15:56;31.67;64.57
67364;HTU21D;54250;45.572;38.086;2023-07-24T04:18:23;32.86;62.02
67364;HTU21D;54250;45.572;38.086;2023-07-24T04:20:49;34.09;59.34
67364;HTU21D;54250;45.572;38.086;2023-07-24T04:23:15;34.96;57.42
67364;HTU21D;54250;45.572;38.086;2023-07-24T04:25:41;35.75;55.45
67364;HTU21D;54250;45.572;38.086;2023-07-24T04:28:07;36.48;53.68
67364;HTU21D;54250;45.572;38.086;2023-07-24T04:30:33;37.01;52.03
67364;HTU21D;54250;45.572;38.086;2023-07-24T04:32:59;36.74;51.83
67364;HTU21D;54250;45.572;38.086;2023-07-24T04:35:26;36.73;51.21
67364;HTU21D;54250;45.572;38.086;2023-07-24T04:37:52;37.14;50.27
67364;HTU21D;54250;45.572;38.086;2023-07-24T04:40:18;37.30;49.53
67364;HTU21D;54250;45.572;38.086;2023-07-24T04:42:44;36.96;49.77
67364;HTU21D;54250;45.572;38.086;2023-07-24T04:45:10;36.57;50.18
67364;HTU21D;54250;45.572;38.086;2023-07-24T04:47:36;36.38;50.63
67364;HTU21D;54250;45.572;38.086;2023-07-24T04:50:04;36.69;49.66
67364;HTU21D;54250;45.572;38.086;2023-07-24T04:52:30;36.70;49.08
67364;HTU21D;54250;45.572;38.086;2023-07-24T04:54:55;36.58;49.05
67364;HTU21D;54250;45.572;38.086;2023-07-24T04:57:22;36.34;48.89
67364;HTU21D;54250;45.572;38.086;2023-07-24T04:59:47;35.06;50.51
67364;HTU21D;54250;45.572;38.086;2023-07-24T05:02:13;33.42;53.38
67364;HTU21D;54250;45.572;38.086;2023-07-24T05:04:39;32.43;55.29
67364;HTU21D;54250;45.572;38.086;2023-07-24T05:07:07;31.45;56.88
67364;HTU21D;54250;45.572;38.086;2023-07-24T05:09:33;31.55;56.97
67364;HTU21D;54250;45.572;38.086;2023-07-24T05:11:59;31.70;56.46
67364;HTU21D;54250;45.572;38.086;2023-07-24T05:14:24;33.70;52.94
67364;HTU21D;54250;45.572;38.086;2023-07-24T05:16:50;36.31;48.31
67364;HTU21D;54250;45.572;38.086;2023-07-24T05:19:16;38.47;45.03
67364;HTU21D;54250;45.572;38.086;2023-07-24T05:21:42;39.94;42.38
67364;HTU21D;54250;45.572;38.086;2023-07-24T05:24:08;41.11;40.55
67364;HTU21D;54250;45.572;38.086;2023-07-24T05:26:34;41.94;38.66
67364;HTU21D;54250;45.572;38.086;2023-07-24T05:29:00;42.36;37.85
67364;HTU21D;54250;45.572;38.086;2023-07-24T05:31:26;42.95;36.99
67364;HTU21D;54250;45.572;38.086;2023-07-24T05:33:52;41.79;38.04
67364;HTU21D;54250;45.572;38.086;2023-07-24T05:36:18;41.96;37.91
67364;HTU21D;54250;45.572;38.086;2023-07-24T05:38:43;42.73;36.63
67364;HTU21D;54250;45.572;38.086;2023-07-24T05:41:09;43.42;35.50
67364;HTU21D;54250;45.572;38.086;2023-07-24T05:43:35;44.11;34.53
67364;HTU21D;54250;45.572;38.086;2023-07-24T05:46:01;44.52;33.90
67364;HTU21D;54250;45.572;38.086;2023-07-24T05:48:27;45.07;33.05
67364;HTU21D;54250;45.572;38.086;2023-07-24T05:50:53;45.77;32.15
67364;HTU21D;54250;45.572;38.086;2023-07-24T05:53:19;46.25;31.87
67364;HTU21D;54250;45.572;38.086;2023-07-24T05:55:45;46.87;30.90
67364;HTU21D;54250;45.572;38.086;2023-07-24T05:58:11;46.07;31.04
67364;HTU21D;54250;45.572;38.086;2023-07-24T06:00:37;45.70;31.46
67364;HTU21D;54250;45.572;38.086;2023-07-24T06:03:03;45.35;31.64
67364;HTU21D;54250;45.572;38.086;2023-07-24T06:05:29;45.11;31.65
67364;HTU21D;54250;45.572;38.086;2023-07-24T06:07:55;44.17;32.73
67364;HTU21D;54250;45.572;38.086;2023-07-24T06:10:21;44.88;31.67
67364;HTU21D;54250;45.572;38.086;2023-07-24T06:12:47;45.51;30.29
67364;HTU21D;54250;45.572;38.086;2023-07-24T06:15:13;45.91;29.87
67364;HTU21D;54250;45.572;38.086;2023-07-24T06:17:39;46.40;29.22
67364;HTU21D;54250;45.572;38.086;2023-07-24T06:20:06;46.34;29.62
67364;HTU21D;54250;45.572;38.086;2023-07-24T06:22:32;46.86;29.22
67364;HTU21D;54250;45.572;38.086;2023-07-24T06:24:58;46.91;28.87
67364;HTU21D;54250;45.572;38.086;2023-07-24T06:27:24;46.42;29.02
67364;HTU21D;54250;45.572;38.086;2023-07-24T06:29:50;43.33;32.12
67364;HTU21D;54250;45.572;38.086;2023-07-24T06:32:16;40.14;36.03
67364;HTU21D;54250;45.572;38.086;2023-07-24T06:34:41;40.84;35.79
67364;HTU21D;54250;45.572;38.086;2023-07-24T06:37:07;42.83;33.38
67364;HTU21D;54250;45.572;38.086;2023-07-24T06:39:33;44.13;31.05
67364;HTU21D;54250;45.572;38.086;2023-07-24T06:41:59;45.20;30.06
67364;HTU21D;54250;45.572;38.086;2023-07-24T06:44:25;45.50;29.86
67364;HTU21D;54250;45.572;38.086;2023-07-24T06:46:51;46.20;29.45
67364;HTU21D;54250;45.572;38.086;2023-07-24T06:49:17;46.75;28.37
67364;HTU21D;54250;45.572;38.086;2023-07-24T06:51:43;47.14;27.68
67364;HTU21D;54250;45.572;38.086;2023-07-24T06:54:08;47.61;27.25
67364;HTU21D;54250;45.572;38.086;2023-07-24T06:56:34;47.82;27.44
67364;HTU21D;54250;45.572;38.086;2023-07-24T06:59:00;47.83;27.42
67364;HTU21D;54250;45.572;38.086;2023-07-24T07:01:26;47.99;27.46
67364;HTU21D;54250;45.572;38.086;2023-07-24T07:03:52;48.27;27.06
67364;HTU21D;54250;45.572;38.086;2023-07-24T07:06:18;48.38;26.53
67364;HTU21D;54250;45.572;38.086;2023-07-24T07:08:44;48.34;26.24
67364;HTU21D;54250;45.572;38.086;2023-07-24T07:11:10;48.43;26.21
67364;HTU21D;54250;45.572;38.086;2023-07-24T07:13:36;48.25;25.83
67364;HTU21D;54250;45.572;38.086;2023-07-24T07:16:02;48.16;25.85
67364;HTU21D;54250;45.572;38.086;2023-07-24T07:18:28;48.29;25.88
67364;HTU21D;54250;45.572;38.086;2023-07-24T07:20:54;48.22;25.84
67364;HTU21D;54250;45.572;38.086;2023-07-24T07:23:21;47.94;25.79
67364;HTU21D;54250;45.572;38.086;2023-07-24T07:25:47;47.14;26.53
67364;HTU21D;54250;45.572;38.086;2023-07-24T07:28:15;47.29;26.30
67364;HTU21D;54250;45.572;38.086;2023-07-24T07:30:42;47.58;25.61
67364;HTU21D;54250;45.572;38.086;2023-07-24T07:33:09;47.91;25.60
67364;HTU21D;54250;45.572;38.086;2023-07-24T07:35:35;48.49;25.23
67364;HTU21D;54250;45.572;38.086;2023-07-24T07:38:02;49.03;25.25
67364;HTU21D;54250;45.572;38.086;2023-07-24T07:40:28;49.08;25.23
67364;HTU21D;54250;45.572;38.086;2023-07-24T07:42:55;48.88;25.59
67364;HTU21D;54250;45.572;38.086;2023-07-24T07:45:22;49.05;25.20
67364;HTU21D;54250;45.572;38.086;2023-07-24T07:47:48;49.13;25.22
67364;HTU21D;54250;45.572;38.086;2023-07-24T07:50:14;49.43;24.88
67364;HTU21D;54250;45.572;38.086;2023-07-24T07:52:40;49.67;24.34
67364;HTU21D;54250;45.572;38.086;2023-07-24T07:55:06;49.26;24.84
67364;HTU21D;54250;45.572;38.086;2023-07-24T07:57:36;47.46;26.35
67364;HTU21D;54250;45.572;38.086;2023-07-24T08:00:03;45.19;28.74
67364;HTU21D;54250;45.572;38.086;2023-07-24T08:02:30;45.89;28.19
67364;HTU21D;54250;45.572;38.086;2023-07-24T08:04:58;46.91;27.20
67364;HTU21D;54250;45.572;38.086;2023-07-24T08:07:24;46.96;27.14
67364;HTU21D;54250;45.572;38.086;2023-07-24T08:09:49;48.06;25.85
67364;HTU21D;54250;45.572;38.086;2023-07-24T08:12:16;48.56;25.23
67364;HTU21D;54250;45.572;38.086;2023-07-24T08:14:41;48.45;24.91
67364;HTU21D;54250;45.572;38.086;2023-07-24T08:17:07;48.40;25.38
67364;HTU21D;54250;45.572;38.086;2023-07-24T08:19:33;48.44;25.36
67364;HTU21D;54250;45.572;38.086;2023-07-24T08:21:59;47.35;26.53
67364;HTU21D;54250;45.572;38.086;2023-07-24T08:24:25;47.19;26.44
67364;HTU21D;54250;45.572;38.086;2023-07-24T08:26:51;47.52;26.33
67364;HTU21D;54250;45.572;38.086;2023-07-24T08:29:17;47.50;26.49
67364;HTU21D;54250;45.572;38.086;2023-07-24T08:31:43;47.50;26.91
67364;HTU21D;54250;45.572;38.086;2023-07-24T08:34:09;47.71;26.02
67364;HTU21D;54250;45.572;38.086;2023-07-24T08:36:35;47.63;26.09
67364;HTU21D;54250;45.572;38.086;2023-07-24T08:39:03;47.41;26.23
67364;HTU21D;54250;45.572;38.086;2023-07-24T08:41:29;47.64;25.92
67364;HTU21D;54250;45.572;38.086;2023-07-24T08:43:56;47.77;26.26
67364;HTU21D;54250;45.572;38.086;2023-07-24T08:46:22;47.97;25.98
67364;HTU21D;54250;45.572;38.086;2023-07-24T08:48:49;48.10;25.71
67364;HTU21D;54250;45.572;38.086;2023-07-24T08:51:15;48.26;26.13
67364;HTU21D;54250;45.572;38.086;2023-07-24T08:53:50;46.89;27.16
67364;HTU21D;54250;45.572;38.086;2023-07-24T08:56:16;46.68;27.27
67364;HTU21D;54250;45.572;38.086;2023-07-24T08:58:42;46.86;27.25
67364;HTU21D;54250;45.572;38.086;2023-07-24T09:01:09;46.90;27.06
67364;HTU21D;54250;45.572;38.086;2023-07-24T09:03:35;46.46;27.35
67364;HTU21D;54250;45.572;38.086;2023-07-24T09:06:02;46.17;27.55
67364;HTU21D;54250;45.572;38.086;2023-07-24T09:08:30;46.20;27.68
67364;HTU21D;54250;45.572;38.086;2023-07-24T09:10:57;46.23;27.52
67364;HTU21D;54250;45.572;38.086;2023-07-24T09:13:23;45.96;27.71
67364;HTU21D;54250;45.572;38.086;2023-07-24T09:15:49;45.58;28.35
67364;HTU21D;54250;45.572;38.086;2023-07-24T09:18:15;45.02;28.81
67364;HTU21D;54250;45.572;38.086;2023-07-24T09:20:44;43.41;30.54
67364;HTU21D;54250;45.572;38.086;2023-07-24T09:23:11;42.69;31.93
67364;HTU21D;54250;45.572;38.086;2023-07-24T09:25:39;42.36;32.54
67364;HTU21D;54250;45.572;38.086;2023-07-24T09:28:13;41.35;33.75
67364;HTU21D;54250;45.572;38.086;2023-07-24T09:30:40;39.97;35.93
67364;HTU21D;54250;45.572;38.086;2023-07-24T09:33:06;38.64;38.14
67364;HTU21D;54250;45.572;38.086;2023-07-24T09:35:33;37.87;39.84
67364;HTU21D;54250;45.572;38.086;2023-07-24T09:38:09;37.15;40.54
67364;HTU21D;54250;45.572;38.086;2023-07-24T09:40:43;36.37;41.66
67364;HTU21D;54250;45.572;38.086;2023-07-24T09:43:24;35.99;42.62
67364;HTU21D;54250;45.572;38.086;2023-07-24T09:45:51;35.75;43.10
67364;HTU21D;54250;45.572;38.086;2023-07-24T09:48:18;35.41;43.52
67364;HTU21D;54250;45.572;38.086;2023-07-24T09:50:46;34.96;44.80
67364;HTU21D;54250;45.572;38.086;2023-07-24T09:53:18;34.78;45.35
67364;HTU21D;54250;45.572;38.086;2023-07-24T09:55:54;34.59;45.70
67364;HTU21D;54250;45.572;38.086;2023-07-24T09:58:21;34.37;46.47
67364;HTU21D;54250;45.572;38.086;2023-07-24T10:00:48;34.24;46.27
67364;HTU21D;54250;45.572;38.086;2023-07-24T10:03:15;33.99;46.93
67364;HTU21D;54250;45.572;38.086;2023-07-24T10:05:43;33.93;46.77
67364;HTU21D;54250;45.572;38.086;2023-07-24T10:08:10;33.72;47.55
67364;HTU21D;54250;45.572;38.086;2023-07-24T10:10:38;33.67;48.18
67364;HTU21D;54250;45.572;38.086;2023-07-24T10:13:05;33.61;48.37
67364;HTU21D;54250;45.572;38.086;2023-07-24T10:15:32;33.76;48.15
67364;HTU21D;54250;45.572;38.086;2023-07-24T10:18:03;33.41;48.32
67364;HTU21D;54250;45.572;38.086;2023-07-24T10:20:39;33.20;48.92
67364;HTU21D;54250;45.572;38.086;2023-07-24T10:23:08;33.36;49.04
67364;HTU21D;54250;45.572;38.086;2023-07-24T10:25:36;33.42;48.44
67364;HTU21D;54250;45.572;38.086;2023-07-24T10:28:07;33.12;49.01
67364;HTU21D;54250;45.572;38.086;2023-07-24T10:30:40;33.12;49.39
67364;HTU21D;54250;45.572;38.086;2023-07-24T10:33:17;33.23;49.40
67364;HTU21D;54250;45.572;38.086;2023-07-24T10:35:49;33.42;49.27
67364;HTU21D;54250;45.572;38.086;2023-07-24T10:38:17;33.53;49.25
67364;HTU21D;54250;45.572;38.086;2023-07-24T10:40:46;33.63;49.33
67364;HTU21D;54250;45.572;38.086;2023-07-24T10:43:18;33.71;48.96
67364;HTU21D;54250;45.572;38.086;2023-07-24T10:45:52;33.60;49.25
67364;HTU21D;54250;45.572;38.086;2023-07-24T10:48:20;33.63;49.51
67364;HTU21D;54250;45.572;38.086;2023-07-24T10:50:48;33.62;49.43
67364;HTU21D;54250;45.572;38.086;2023-07-24T10:53:16;33.46;49.26
67364;HTU21D;54250;45.572;38.086;2023-07-24T10:55:43;33.50;49.69
67364;HTU21D;54250;45.572;38.086;2023-07-24T10:58:12;33.72;48.94
67364;HTU21D;54250;45.572;38.086;2023-07-24T11:00:42;33.72;49.31
67364;HTU21D;54250;45.572;38.086;2023-07-24T11:03:12;33.46;49.66
67364;HTU21D;54250;45.572;38.086;2023-07-24T11:05:42;33.23;49.83
67364;HTU21D;54250;45.572;38.086;2023-07-24T11:08:13;33.04;49.52
67364;HTU21D;54250;45.572;38.086;2023-07-24T11:10:52;33.02;49.88
67364;HTU21D;54250;45.572;38.086;2023-07-24T11:13:20;33.02;50.18
67364;HTU21D;54250;45.572;38.086;2023-07-24T11:15:48;32.94;50.29
67364;HTU21D;54250;45.572;38.086;2023-07-24T11:18:14;32.68;50.13
67364;HTU21D;54250;45.572;38.086;2023-07-24T11:20:51;32.10;51.03
67364;HTU21D;54250;45.572;38.086;2023-07-24T11:23:18;31.83;51.42
67364;HTU21D;54250;45.572;38.086;2023-07-24T11:25:45;31.89;51.49
67364;HTU21D;54250;45.572;38.086;2023-07-24T11:28:13;31.96;51.78
67364;HTU21D;54250;45.572;38.086;2023-07-24T11:30:39;32.03;51.67
67364;HTU21D;54250;45.572;38.086;2023-07-24T11:33:07;31.95;51.90
67364;HTU21D;54250;45.572;38.086;2023-07-24T11:35:34;31.84;52.10
67364;HTU21D;54250;45.572;38.086;2023-07-24T11:38:01;31.81;51.88
67364;HTU21D;54250;45.572;38.086;2023-07-24T11:40:45;31.76;52.06
67364;HTU21D;54250;45.572;38.086;2023-07-24T11:43:30;31.68;52.62
67364;HTU21D;54250;45.572;38.086;2023-07-24T11:45:56;31.58;52.33
67364;HTU21D;54250;45.572;38.086;2023-07-24T11:48:23;31.42;52.98
67364;HTU21D;54250;45.572;38.086;2023-07-24T11:50:51;31.43;53.01
67364;HTU21D;54250;45.572;38.086;2023-07-24T11:53:28;31.39;52.54
67364;HTU21D;54250;45.572;38.086;2023-07-24T11:55:59;31.29;53.05
67364;HTU21D;54250;45.572;38.086;2023-07-24T11:58:28;31.29;52.88
67364;HTU21D;54250;45.572;38.086;2023-07-24T12:00:54;31.18;52.97
67364;HTU21D;54250;45.572;38.086;2023-07-24T12:03:28;31.09;53.14
67364;HTU21D;54250;45.572;38.086;2023-07-24T12:05:55;31.01;53.19
67364;HTU21D;54250;45.572;38.086;2023-07-24T12:08:31;30.93;53.27
67364;HTU21D;54250;45.572;38.086;2023-07-24T12:10:57;30.91;53.37
67364;HTU21D;54250;45.572;38.086;2023-07-24T12:13:23;30.86;53.56
67364;HTU21D;54250;45.572;38.086;2023-07-24T12:15:49;30.85;53.58
67364;HTU21D;54250;45.572;38.086;2023-07-24T12:18:15;30.79;53.64
67364;HTU21D;54250;45.572;38.086;2023-07-24T12:20:41;30.74;53.67
67364;HTU21D;54250;45.572;38.086;2023-07-24T12:23:07;30.65;53.53
67364;HTU21D;54250;45.572;38.086;2023-07-24T12:25:33;30.50;53.93
67364;HTU21D;54250;45.572;38.086;2023-07-24T12:27:59;30.36;54.33
67364;HTU21D;54250;45.572;38.086;2023-07-24T12:30:25;30.27;54.18
67364;HTU21D;54250;45.572;38.086;2023-07-24T12:32:51;30.19;54.26
67364;HTU21D;54250;45.572;38.086;2023-07-24T12:35:17;30.10;54.53
67364;HTU21D;54250;45.572;38.086;2023-07-24T12:37:44;30.01;54.47
67364;HTU21D;54250;45.572;38.086;2023-07-24T12:40:11;29.94;54.57
67364;HTU21D;54250;45.572;38.086;2023-07-24T12:42:37;29.83;54.67
67364;HTU21D;54250;45.572;38.086;2023-07-24T12:45:04;29.77;54.62
67364;HTU21D;54250;45.572;38.086;2023-07-24T12:47:31;29.64;55.06
67364;HTU21D;54250;45.572;38.086;2023-07-24T12:49:57;29.48;55.20
67364;HTU21D;54250;45.572;38.086;2023-07-24T12:52:25;29.42;55.47
67364;HTU21D;54250;45.572;38.086;2023-07-24T12:54:51;29.42;55.51
67364;HTU21D;54250;45.572;38.086;2023-07-24T12:57:17;29.35;55.22
67364;HTU21D;54250;45.572;38.086;2023-07-24T12:59:43;29.24;55.49
67364;HTU21D;54250;45.572;38.086;2023-07-24T13:02:09;29.16;55.90
67364;HTU21D;54250;45.572;38.086;2023-07-24T13:04:35;29.14;55.89
67364;HTU21D;54250;45.572;38.086;2023-07-24T13:07:01;29.06;56.20
67364;HTU21D;54250;45.572;38.086;2023-07-24T13:09:27;29.02;56.21
67364;HTU21D;54250;45.572;38.086;2023-07-24T13:11:53;28.95;56.29
67364;HTU21D;54250;45.572;38.086;2023-07-24T13:14:20;28.90;56.08
67364;HTU21D;54250;45.572;38.086;2023-07-24T13:16:47;28.79;55.91
67364;HTU21D;54250;45.572;38.086;2023-07-24T13:19:12;28.71;56.16
67364;HTU21D;54250;45.572;38.086;2023-07-24T13:21:39;28.65;56.38
67364;HTU21D;54250;45.572;38.086;2023-07-24T13:24:06;28.62;56.24
67364;HTU21D;54250;45.572;38.086;2023-07-24T13:26:33;28.54;56.53
67364;HTU21D;54250;45.572;38.086;2023-07-24T13:28:59;28.52;56.68
67364;HTU21D;54250;45.572;38.086;2023-07-24T13:31:25;28.48;56.83
67364;HTU21D;54250;45.572;38.086;2023-07-24T13:33:50;28.45;56.73
67364;HTU21D;54250;45.572;38.086;2023-07-24T13:36:17;28.38;56.95
67364;HTU21D;54250;45.572;38.086;2023-07-24T13:38:43;28.30;57.03
67364;HTU21D;54250;45.572;38.086;2023-07-24T13:41:09;28.20;57.46
67364;HTU21D;54250;45.572;38.086;2023-07-24T13:43:35;28.15;57.49
67364;HTU21D;54250;45.572;38.086;2023-07-24T13:46:01;28.09;57.54
67364;HTU21D;54250;45.572;38.086;2023-07-24T13:48:30;28.02;57.48
67364;HTU21D;54250;45.572;38.086;2023-07-24T13:50:56;27.96;57.71
67364;HTU21D;54250;45.572;38.086;2023-07-24T13:53:22;27.94;57.69
67364;HTU21D;54250;45.572;38.086;2023-07-24T13:55:48;27.89;57.92
67364;HTU21D;54250;45.572;38.086;2023-07-24T13:58:14;27.87;57.87
67364;HTU21D;54250;45.572;38.086;2023-07-24T14:00:40;27.83;57.87
67364;HTU21D;54250;45.572;38.086;2023-07-24T14:03:08;27.78;58.00
67364;HTU21D;54250;45.572;38.086;2023-07-24T14:05:34;27.71;58.01
67364;HTU21D;54250;45.572;38.086;2023-07-24T14:08:03;27.64;57.97
67364;HTU21D;54250;45.572;38.086;2023-07-24T14:10:29;27.58;58.19
67364;HTU21D;54250;45.572;38.086;2023-07-24T14:12:55;27.54;58.45
67364;HTU21D;54250;45.572;38.086;2023-07-24T14:15:21;27.50;58.79
67364;HTU21D;54250;45.572;38.086;2023-07-24T14:17:47;27.46;58.87
67364;HTU21D;54250;45.572;38.086;2023-07-24T14:20:13;27.43;59.06
67364;HTU21D;54250;45.572;38.086;2023-07-24T14:22:39;27.38;58.96
67364;HTU21D;54250;45.572;38.086;2023-07-24T14:25:05;27.34;58.87
67364;HTU21D;54250;45.572;38.086;2023-07-24T14:27:32;27.29;59.21
67364;HTU21D;54250;45.572;38.086;2023-07-24T14:29:57;27.24;59.08
67364;HTU21D;54250;45.572;38.086;2023-07-24T14:32:23;27.19;59.20
67364;HTU21D;54250;45.572;38.086;2023-07-24T14:34:51;27.12;59.39
67364;HTU21D;54250;45.572;38.086;2023-07-24T14:37:18;27.10;59.56
67364;HTU21D;54250;45.572;38.086;2023-07-24T14:39:44;27.07;59.60
67364;HTU21D;54250;45.572;38.086;2023-07-24T14:42:10;27.04;59.45
67364;HTU21D;54250;45.572;38.086;2023-07-24T14:44:37;26.98;59.54
67364;HTU21D;54250;45.572;38.086;2023-07-24T14:47:03;26.94;59.64
67364;HTU21D;54250;45.572;38.086;2023-07-24T14:49:29;26.86;59.76
67364;HTU21D;54250;45.572;38.086;2023-07-24T14:51:55;26.81;59.89
67364;HTU21D;54250;45.572;38.086;2023-07-24T14:54:21;26.76;60.11
67364;HTU21D;54250;45.572;38.086;2023-07-24T14:56:47;26.75;60.18
67364;HTU21D;54250;45.572;38.086;2023-07-24T14:59:13;26.68;60.32
67364;HTU21D;54250;45.572;38.086;2023-07-24T15:01:38;26.66;60.37
67364;HTU21D;54250;45.572;38.086;2023-07-24T15:04:04;26.63;60.31
67364;HTU21D;54250;45.572;38.086;2023-07-24T15:06:30;26.57;60.54